createdAt,value
2019-05-15T00:00:48.196Z,99954.00
2019-05-15T00:03:20.674Z,99964.48
2019-05-15T00:05:51.515Z,99959.56
2019-05-15T00:08:22.364Z,99963.14
2019-05-15T00:10:53.059Z,99955.73
2019-05-15T00:13:24.799Z,99948.42
2019-05-15T00:15:55.479Z,99950.50
2019-05-15T00:18:28.206Z,99950.20
2019-05-15T00:20:59.537Z,99947.02
2019-05-15T00:23:30.416Z,99947.53
2019-05-15T00:26:01.080Z,99949.02
2019-05-15T00:28:31.850Z,99951.00
2019-05-15T00:31:02.546Z,99950.36
2019-05-15T00:33:33.208Z,99942.95
2019-05-15T00:36:03.908Z,99930.47
2019-05-15T00:38:34.671Z,99933.41
2019-05-15T00:41:05.307Z,99930.07
2019-05-15T00:43:38.507Z,99929.06
2019-05-15T00:46:09.644Z,99922.05
2019-05-15T00:48:40.423Z,99921.16
2019-05-15T00:51:11.358Z,99920.52
2019-05-15T00:53:42.183Z,99918.33
2019-05-15T00:56:13.056Z,99919.84
2019-05-15T00:58:43.696Z,99919.22
2019-05-15T01:01:14.391Z,99920.05
2019-05-15T01:03:45.151Z,99918.29
2019-05-15T01:06:15.920Z,99913.35
2019-05-15T01:08:48.312Z,99921.09
2019-05-15T01:11:19.322Z,99916.71
2019-05-15T01:13:49.972Z,99920.21
2019-05-15T01:16:20.938Z,99910.48
2019-05-15T01:18:51.711Z,99914.74
2019-05-15T01:21:22.620Z,99907.77
2019-05-15T01:23:53.529Z,99915.45
2019-05-15T01:26:24.430Z,99911.06
2019-05-15T01:28:55.196Z,99909.92
2019-05-15T01:31:28.375Z,99907.55
2019-05-15T01:33:58.443Z,99900.70
2019-05-15T01:36:29.307Z,99902.57
2019-05-15T01:38:59.964Z,99900.48
2019-05-15T01:41:30.668Z,99898.66
2019-05-15T01:44:01.482Z,99895.52
2019-05-15T01:46:32.172Z,99902.17
2019-05-15T01:49:03.046Z,99892.72
2019-05-15T01:51:33.812Z,99896.41
2019-05-15T01:54:04.572Z,99883.82
2019-05-15T01:56:35.310Z,99889.38
2019-05-15T01:59:05.961Z,99888.05
2019-05-15T02:01:39.136Z,99886.97
2019-05-15T02:04:09.564Z,99890.16
2019-05-15T02:06:40.497Z,99875.45
2019-05-15T02:09:11.197Z,99890.20
2019-05-15T02:11:41.963Z,99892.88
2019-05-15T02:14:12.945Z,99886.20
2019-05-15T02:16:43.620Z,99882.14
2019-05-15T02:19:14.267Z,99880.00
2019-05-15T02:21:44.899Z,99880.66
2019-05-15T02:24:15.683Z,99876.86
2019-05-15T02:26:48.182Z,99885.47
2019-05-15T02:29:24.749Z,99883.94
2019-05-15T02:31:51.190Z,99883.24
2019-05-15T02:34:22.812Z,99878.20
2019-05-15T02:36:53.552Z,99876.78
2019-05-15T02:39:24.328Z,99873.77
2019-05-15T02:41:55.022Z,99874.41
2019-05-15T02:44:25.571Z,99869.13
2019-05-15T02:46:58.795Z,99862.88
2019-05-15T02:49:30.223Z,99867.25
2019-05-15T02:52:01.223Z,99861.20
2019-05-15T02:54:31.981Z,99865.87
2019-05-15T02:57:02.791Z,99862.88
2019-05-15T02:59:33.627Z,99862.34
2019-05-15T03:02:04.496Z,99862.27
2019-05-15T03:04:35.263Z,99857.98
2019-05-15T03:07:09.423Z,99850.25
2019-05-15T03:09:39.968Z,99851.28
2019-05-15T03:12:11.159Z,99852.39
2019-05-15T03:14:42.498Z,99849.52
2019-05-15T03:17:13.332Z,99844.23
2019-05-15T03:19:44.168Z,99848.75
2019-05-15T03:22:15.233Z,99844.62
2019-05-15T03:24:46.004Z,99850.98
2019-05-15T03:27:19.518Z,99845.96
2019-05-15T03:29:49.517Z,99850.82
2019-05-15T03:32:33.563Z,99850.29
2019-05-15T03:34:56.415Z,99847.49
2019-05-15T03:37:25.260Z,99839.34
2019-05-15T03:39:59.232Z,99842.36
2019-05-15T03:42:29.405Z,99848.48
2019-05-15T03:45:00.456Z,99846.46
2019-05-15T03:47:31.317Z,99846.27
2019-05-15T03:50:02.301Z,99852.55
2019-05-15T03:52:32.988Z,99851.04
2019-05-15T03:55:03.773Z,99855.55
2019-05-15T03:57:34.560Z,99851.04
2019-05-15T04:00:09.346Z,99845.94
2019-05-15T04:02:39.376Z,99848.48
2019-05-15T04:05:12.325Z,99853.34
2019-05-15T04:07:43.132Z,99852.00
2019-05-15T04:10:14.308Z,99852.03
2019-05-15T04:12:45.047Z,99848.02
2019-05-15T04:15:18.755Z,99853.00
2019-05-15T04:17:49.329Z,99855.42
2019-05-15T04:20:20.479Z,99847.03
2019-05-15T04:22:50.955Z,99842.86
2019-05-15T04:25:21.461Z,99844.47
2019-05-15T04:27:52.328Z,99845.23
2019-05-15T04:30:22.827Z,99839.33
2019-05-15T04:32:53.300Z,99837.69
2019-05-15T04:35:23.822Z,99838.80
2019-05-15T04:37:54.306Z,99836.34
2019-05-15T04:40:24.803Z,99830.56
2019-05-15T04:42:55.301Z,99841.32
2019-05-15T04:45:25.777Z,99840.34
2019-05-15T04:47:58.766Z,99842.58
2019-05-15T04:50:28.967Z,99841.36
2019-05-15T04:52:59.705Z,99849.56
2019-05-15T04:55:30.184Z,99841.52
2019-05-15T04:58:00.871Z,99841.50
2019-05-15T05:00:49.509Z,99845.19
2019-05-15T05:03:20.540Z,99849.13
2019-05-15T05:05:51.755Z,99850.34
2019-05-15T05:08:23.243Z,99846.34
2019-05-15T05:10:53.797Z,99846.30
2019-05-15T05:13:24.274Z,99843.92
2019-05-15T05:15:54.853Z,99849.69
2019-05-15T05:18:25.320Z,99851.33
2019-05-15T05:20:57.753Z,99849.59
2019-05-15T05:23:28.436Z,99849.50
2019-05-15T05:26:00.103Z,99851.12
2019-05-15T05:28:30.632Z,99850.22
2019-05-15T05:31:01.147Z,99846.64
2019-05-15T05:33:31.646Z,99846.95
2019-05-15T05:36:02.214Z,99841.97
2019-05-15T05:38:32.811Z,99844.92
2019-05-15T05:41:03.349Z,99839.77
2019-05-15T05:43:34.151Z,99843.00
2019-05-15T05:46:04.662Z,99845.15
2019-05-15T05:48:35.244Z,99833.11
2019-05-15T05:51:05.780Z,99834.85
2019-05-15T05:53:38.388Z,99839.32
2019-05-15T05:56:09.065Z,99831.80
2019-05-15T05:58:39.716Z,99842.54
2019-05-15T06:01:10.244Z,99841.81
2019-05-15T06:03:40.747Z,99832.30
2019-05-15T06:06:11.255Z,99836.77
2019-05-15T06:08:41.807Z,99834.72
2019-05-15T06:11:12.300Z,99833.59
2019-05-15T06:13:42.811Z,99842.70
2019-05-15T06:16:13.286Z,99843.58
2019-05-15T06:18:43.884Z,99839.80
2019-05-15T06:21:14.355Z,99838.63
2019-05-15T06:23:46.857Z,99839.39
2019-05-15T06:26:19.697Z,99837.83
2019-05-15T06:28:49.513Z,99838.84
2019-05-15T06:31:19.995Z,99830.51
2019-05-15T06:33:50.476Z,99828.69
2019-05-15T06:36:21.078Z,99825.37
2019-05-15T06:38:51.559Z,99821.23
2019-05-15T06:41:22.059Z,99825.28
2019-05-15T06:43:52.588Z,99820.22
2019-05-15T06:46:23.052Z,99823.01
2019-05-15T06:48:54.656Z,99824.45
2019-05-15T06:51:25.116Z,99818.75
2019-05-15T06:53:55.626Z,99816.78
2019-05-15T06:56:28.164Z,99820.42
2019-05-15T06:58:58.356Z,99815.56
2019-05-15T07:01:29.430Z,99816.78
2019-05-15T07:04:00.201Z,99803.39
2019-05-15T07:06:30.699Z,99804.09
2019-05-15T07:09:01.189Z,99806.92
2019-05-15T07:11:33.113Z,99804.45
2019-05-15T07:14:03.580Z,99801.41
2019-05-15T07:16:34.236Z,99805.63
2019-05-15T07:19:04.704Z,99799.23
2019-05-15T07:21:35.220Z,99808.05
2019-05-15T07:24:05.692Z,99797.98
2019-05-15T07:26:38.944Z,99802.66
2019-05-15T07:29:08.393Z,99798.29
2019-05-15T07:31:38.918Z,99798.91
2019-05-15T07:34:09.415Z,99793.88
2019-05-15T07:36:39.874Z,99800.63
2019-05-15T07:39:10.406Z,99799.43
2019-05-15T07:41:40.865Z,99793.41
2019-05-15T07:44:11.384Z,99799.02
2019-05-15T07:46:41.850Z,99792.88
2019-05-15T07:49:12.357Z,99792.28
2019-05-15T07:51:42.843Z,99792.44
2019-05-15T07:54:13.324Z,99788.80
2019-05-15T07:56:43.855Z,99788.45
2019-05-15T07:59:14.314Z,99778.56
2019-05-15T08:01:44.965Z,99778.14
2019-05-15T08:04:26.225Z,99780.45
2019-05-15T08:06:49.099Z,99780.66
2019-05-15T08:09:19.752Z,99775.26
2019-05-15T08:11:50.225Z,99775.19
2019-05-15T08:14:20.720Z,99777.05
2019-05-15T08:16:51.193Z,99765.90
2019-05-15T08:19:21.706Z,99761.06
2019-05-15T08:21:52.192Z,99756.71
2019-05-15T08:24:22.752Z,99755.45
2019-05-15T08:26:53.227Z,99754.86
2019-05-15T08:29:23.716Z,99748.85
2019-05-15T08:31:54.256Z,99753.73
2019-05-15T08:34:24.764Z,99748.51
2019-05-15T08:36:55.264Z,99747.30
2019-05-15T08:39:28.340Z,99741.23
2019-05-15T08:41:58.425Z,99752.70
2019-05-15T08:44:29.527Z,99746.03
2019-05-15T08:47:00.097Z,99742.34
2019-05-15T08:49:31.051Z,99744.89
2019-05-15T08:52:01.509Z,99737.59
2019-05-15T08:54:32.117Z,99742.53
2019-05-15T08:57:02.587Z,99736.78
2019-05-15T08:59:33.081Z,99738.96
2019-05-15T09:02:03.553Z,99736.38
2019-05-15T09:04:35.158Z,99732.51
2019-05-15T09:07:08.947Z,99733.05
2019-05-15T09:09:38.435Z,99735.32
2019-05-15T09:12:09.176Z,99725.52
2019-05-15T09:14:39.636Z,99722.34
2019-05-15T09:17:10.257Z,99717.64
2019-05-15T09:19:40.847Z,99716.71
2019-05-15T09:22:11.370Z,99720.97
2019-05-15T09:24:41.912Z,99716.05
2019-05-15T09:27:12.457Z,99715.55
2019-05-15T09:29:44.039Z,99713.80
2019-05-15T09:32:14.504Z,99709.45
2019-05-15T09:34:53.915Z,99710.66
2019-05-15T09:37:18.050Z,99718.63
2019-05-15T09:39:49.092Z,99713.19
2019-05-15T09:42:19.803Z,99704.51
2019-05-15T09:44:50.245Z,99700.89
2019-05-15T09:47:21.031Z,99694.66
2019-05-15T09:49:51.496Z,99686.84
2019-05-15T09:52:23.036Z,99686.14
2019-05-15T09:54:54.122Z,99686.87
2019-05-15T09:57:24.873Z,99681.23
2019-05-15T09:59:58.548Z,99674.27
2019-05-15T10:02:28.532Z,99679.34
2019-05-15T10:05:06.692Z,99681.72
2019-05-15T10:07:31.906Z,99683.53
2019-05-15T10:10:02.678Z,99687.31
2019-05-15T10:12:35.112Z,99665.95
2019-05-15T10:15:11.434Z,99662.39
2019-05-15T10:17:40.115Z,99672.22
2019-05-15T10:20:11.176Z,99657.78
2019-05-15T10:22:42.270Z,99667.34
2019-05-15T10:25:13.165Z,99659.20
2019-05-15T10:27:44.152Z,99662.23
2019-05-15T10:30:15.175Z,99661.36
2019-05-15T10:32:48.483Z,99654.52
2019-05-15T10:35:25.647Z,99634.47
2019-05-15T10:37:51.182Z,99633.70
2019-05-15T10:40:22.213Z,99628.75
2019-05-15T10:42:52.970Z,99631.77
2019-05-15T10:45:24.152Z,99626.83
2019-05-15T10:47:55.435Z,99619.13
2019-05-15T10:50:28.446Z,99626.03
2019-05-15T10:52:58.641Z,99619.22
2019-05-15T10:55:29.589Z,99615.15
2019-05-15T10:58:00.357Z,99613.59
2019-05-15T11:00:32.165Z,99606.20
2019-05-15T11:03:02.864Z,99599.74
2019-05-15T11:05:44.450Z,99605.78
2019-05-15T11:08:08.345Z,99595.53
2019-05-15T11:10:41.916Z,99598.41
2019-05-15T11:13:11.469Z,99608.30
2019-05-15T11:15:42.732Z,99591.60
2019-05-15T11:18:13.603Z,99597.77
2019-05-15T11:20:44.643Z,99593.81
2019-05-15T11:23:20.128Z,99594.97
2019-05-15T11:25:50.831Z,99594.39
2019-05-15T11:28:21.516Z,99591.93
2019-05-15T11:30:53.298Z,99582.33
2019-05-15T11:33:23.998Z,99589.84
2019-05-15T11:36:04.164Z,99587.73
2019-05-15T11:38:28.975Z,99585.86
2019-05-15T11:40:59.780Z,99570.78
2019-05-15T11:43:30.518Z,99583.72
2019-05-15T11:46:02.234Z,99564.97
2019-05-15T11:48:33.018Z,99571.20
2019-05-15T11:51:03.913Z,99569.92
2019-05-15T11:53:34.737Z,99561.91
2019-05-15T11:56:05.586Z,99555.34
2019-05-15T11:58:38.790Z,99570.28
2019-05-15T12:01:09.038Z,99561.39
2019-05-15T12:03:39.796Z,99564.61
2019-05-15T12:06:18.473Z,99568.19
2019-05-15T12:08:43.396Z,99570.38
2019-05-15T12:11:28.685Z,99558.28
2019-05-15T12:13:46.632Z,99557.77
2019-05-15T12:16:17.429Z,99567.45
2019-05-15T12:18:48.410Z,99553.41
2019-05-15T12:21:20.072Z,99558.87
2019-05-15T12:23:51.862Z,99561.50
2019-05-15T12:26:22.483Z,99551.17
2019-05-15T12:28:53.241Z,99543.23
2019-05-15T12:33:58.498Z,99554.22
2019-05-15T12:36:47.322Z,99546.89
2019-05-15T12:39:09.481Z,99553.13
2019-05-15T12:39:25.962Z,99554.52
2019-05-15T13:01:54.603Z,99540.19
2019-05-15T13:04:25.565Z,99554.53
2019-05-15T13:07:12.209Z,99547.86
2019-05-15T13:09:28.845Z,99551.16
2019-05-15T13:11:59.457Z,99553.44
2019-05-15T13:14:30.114Z,99550.22
2019-05-15T13:17:00.951Z,99543.09
2019-05-15T13:19:31.717Z,99558.12
2019-05-15T13:22:02.418Z,99546.20
2019-05-15T13:24:33.167Z,99547.86
2019-05-15T13:27:04.053Z,99545.48
2019-05-15T13:29:34.968Z,99533.53
2019-05-15T13:32:07.914Z,99538.23
2019-05-15T13:34:38.879Z,99542.76
2019-05-15T13:37:09.889Z,99537.11
2019-05-15T13:39:40.632Z,99546.88
2019-05-15T13:42:11.597Z,99535.57
2019-05-15T13:44:42.303Z,99536.04
2019-05-15T13:47:13.229Z,99533.53
2019-05-15T13:49:43.840Z,99537.78
2019-05-15T13:52:14.700Z,99538.39
2019-05-15T13:54:45.542Z,99536.24
2019-05-15T13:57:18.036Z,99536.25
2019-05-15T13:59:49.945Z,99535.64
2019-05-15T14:02:20.737Z,99531.43
2019-05-15T14:04:52.465Z,99529.83
2019-05-15T14:07:23.248Z,99525.52
2019-05-15T14:09:54.108Z,99521.44
2019-05-15T14:12:25.016Z,99517.20
2019-05-15T14:14:58.046Z,99511.47
2019-05-15T14:17:28.454Z,99512.27
2019-05-15T14:20:00.888Z,99513.34
2019-05-15T14:22:32.876Z,99513.52
2019-05-15T14:25:03.775Z,99509.01
2019-05-15T14:27:34.850Z,99502.41
2019-05-15T14:30:06.056Z,99510.91
2019-05-15T14:32:53.370Z,99498.33
2019-05-15T14:35:11.396Z,99491.50
2019-05-15T14:37:41.972Z,99507.35
2019-05-15T14:40:12.945Z,99512.84
2019-05-15T14:42:43.936Z,99515.58
2019-05-15T14:45:14.867Z,99514.99
2019-05-15T14:47:45.572Z,99515.56
2019-05-15T14:50:16.133Z,99512.83
2019-05-15T14:52:48.008Z,99510.12
2019-05-15T14:55:18.682Z,99495.59
2019-05-15T14:57:49.257Z,99494.78
2019-05-15T15:00:20.778Z,99502.70
2019-05-15T15:02:51.244Z,99494.98
2019-05-15T15:05:23.118Z,99489.32
2019-05-15T15:07:54.289Z,99506.80
2019-05-15T15:10:24.808Z,99495.07
2019-05-15T15:12:55.321Z,99503.80
2019-05-15T15:15:25.792Z,99498.03
2019-05-15T15:17:58.365Z,99500.55
2019-05-15T15:20:28.697Z,99487.52
2019-05-15T15:22:59.539Z,99502.69
2019-05-15T15:25:30.032Z,99494.80
2019-05-15T15:28:00.515Z,99493.28
2019-05-15T15:30:32.035Z,99493.13
2019-05-15T15:33:03.782Z,99492.91
2019-05-15T15:35:34.282Z,99484.45
2019-05-15T15:38:04.865Z,99491.59
2019-05-15T15:40:38.576Z,99500.13
2019-05-15T15:43:09.629Z,99493.15
2019-05-15T15:45:40.974Z,99490.66
2019-05-15T15:48:11.849Z,99491.55
2019-05-15T15:50:42.710Z,99483.29
2019-05-15T15:53:24.517Z,99492.03
2019-05-15T15:55:56.886Z,99491.78
2019-05-15T15:58:29.029Z,99493.97
2019-05-15T16:01:00.818Z,99493.53
2019-05-15T16:03:31.682Z,99489.58
2019-05-15T16:06:02.614Z,99490.67
2019-05-15T16:08:33.553Z,99489.77
2019-05-15T16:11:04.703Z,99491.22
2019-05-15T16:13:35.565Z,99497.25
2019-05-15T16:16:08.586Z,99490.13
2019-05-15T16:18:39.086Z,99496.68
2019-05-15T16:21:09.986Z,99493.69
2019-05-15T16:23:41.127Z,99499.45
2019-05-15T16:26:12.055Z,99495.03
2019-05-15T16:28:42.698Z,99489.81
2019-05-15T16:31:13.303Z,99493.21
2019-05-15T16:33:44.061Z,99489.61
2019-05-15T16:36:14.765Z,99487.75
2019-05-15T16:38:48.044Z,99489.36
2019-05-15T16:41:18.587Z,99492.30
2019-05-15T16:43:49.159Z,99489.20
2019-05-15T16:46:20.118Z,99490.39
2019-05-15T16:48:51.139Z,99488.59
2019-05-15T16:51:23.185Z,99494.27
2019-05-15T16:53:53.829Z,99493.13
2019-05-15T16:56:24.635Z,99492.56
2019-05-15T16:58:55.347Z,99495.30
2019-05-15T17:01:28.817Z,99500.06
2019-05-15T17:03:58.613Z,99500.39
2019-05-15T17:06:29.542Z,99507.03
2019-05-15T17:09:00.389Z,99502.67
2019-05-15T17:11:32.654Z,99500.01
2019-05-15T17:14:03.625Z,99507.95
2019-05-15T17:16:34.573Z,99504.47
2019-05-15T17:19:05.334Z,99508.22
2019-05-15T17:21:36.171Z,99515.60
2019-05-15T17:24:08.882Z,99505.50
2019-05-15T17:26:39.714Z,99506.56
2019-05-15T17:29:10.654Z,99509.77
2019-05-15T17:31:41.578Z,99508.11
2019-05-15T17:34:12.462Z,99509.16
2019-05-15T17:36:43.374Z,99505.72
2019-05-15T17:39:15.136Z,99501.08
2019-05-15T17:41:48.185Z,99505.77
2019-05-15T17:44:18.613Z,99514.25
2019-05-15T17:46:49.347Z,99505.56
2019-05-15T17:49:20.448Z,99498.36
2019-05-15T17:51:52.173Z,99506.20
2019-05-15T17:54:22.840Z,99504.05
2019-05-15T17:56:53.786Z,99502.48
2019-05-15T17:59:24.784Z,99499.87
2019-05-15T18:01:55.650Z,99501.84
2019-05-15T18:04:58.723Z,99499.63
2019-05-15T18:07:29.968Z,99503.67
2019-05-15T18:10:00.806Z,99504.89
2019-05-15T18:12:31.702Z,99502.80
2019-05-15T18:15:02.682Z,99498.83
2019-05-15T18:17:34.206Z,99498.30
2019-05-15T18:20:05.071Z,99496.16
2019-05-15T18:22:37.923Z,99492.28
2019-05-15T18:25:09.239Z,99492.54
2019-05-15T18:27:40.297Z,99493.05
2019-05-15T18:30:11.275Z,99496.64
2019-05-15T18:32:42.164Z,99503.47
2019-05-15T18:35:13.432Z,99505.35
2019-05-15T18:37:44.525Z,99503.99
2019-05-15T18:40:15.196Z,99508.52
2019-05-15T18:42:45.720Z,99504.80
2019-05-15T18:45:18.389Z,99507.98
2019-05-15T18:47:48.919Z,99506.88
2019-05-15T18:50:19.923Z,99506.94
2019-05-15T18:52:50.722Z,99501.08
2019-05-15T18:55:21.622Z,99505.88
2019-05-15T18:57:52.289Z,99510.55
2019-05-15T19:00:23.386Z,99509.74
2019-05-15T19:02:54.303Z,99512.77
2019-05-15T19:05:25.321Z,99519.52
2019-05-15T19:07:58.020Z,99516.77
2019-05-15T19:10:29.089Z,99515.81
2019-05-15T19:13:00.004Z,99518.26
2019-05-15T19:15:31.060Z,99518.67
2019-05-15T19:26:18.342Z,99513.45
2019-05-15T19:28:49.316Z,99512.41
2019-05-15T19:31:26.570Z,99507.00
2019-05-15T19:33:52.749Z,99513.59
2019-05-15T19:36:23.398Z,99510.06
2019-05-15T19:38:54.385Z,99515.82
2019-05-15T19:41:25.275Z,99517.07
2019-05-15T19:43:58.001Z,99518.31
2019-05-15T19:46:28.597Z,99512.22
2019-05-15T19:48:59.325Z,99515.29
2019-05-15T19:51:30.291Z,99518.44
2019-05-15T19:54:01.173Z,99522.25
2019-05-15T19:56:32.051Z,99524.34
2019-05-15T19:59:02.956Z,99521.41
2019-05-15T20:01:33.679Z,99515.81
2019-05-15T20:04:04.690Z,99518.93
2019-05-15T20:06:35.789Z,99519.06
2019-05-15T20:09:07.840Z,99513.53
2019-05-15T20:11:38.893Z,99518.28
2019-05-15T20:14:09.807Z,99511.39
2019-05-15T20:16:40.570Z,99514.44
2019-05-15T20:19:11.322Z,99510.58
2019-05-15T20:21:42.479Z,99510.22
2019-05-15T20:24:13.459Z,99512.80
2019-05-15T20:26:44.228Z,99517.00
2019-05-15T20:29:14.962Z,99517.78
2019-05-15T20:31:48.308Z,99515.91
2019-05-15T20:34:18.364Z,99514.88
2019-05-15T20:36:49.137Z,99511.11
2019-05-15T20:39:19.936Z,99507.06
2019-05-15T20:41:50.607Z,99509.30
2019-05-15T20:44:21.523Z,99508.11
2019-05-15T20:46:52.432Z,99510.81
2019-05-15T20:49:23.076Z,99510.95
2019-05-15T20:51:53.828Z,99508.35
2019-05-15T20:54:24.748Z,99503.98
2019-05-15T20:56:58.372Z,99495.42
2019-05-15T20:59:28.956Z,99498.13
2019-05-15T21:01:59.783Z,99491.17
2019-05-15T21:04:31.381Z,99495.97
2019-05-15T21:07:03.233Z,99490.70
2019-05-15T21:09:33.960Z,99497.09
2019-05-15T21:12:04.729Z,99486.56
2019-05-15T21:14:39.803Z,99486.64
2019-05-15T21:17:08.303Z,99480.80
2019-05-15T21:19:39.162Z,99480.27
2019-05-15T21:22:11.009Z,99475.16
2019-05-15T21:24:41.856Z,99473.82
2019-05-15T21:27:12.694Z,99479.77
2019-05-15T21:29:43.456Z,99473.66
2019-05-15T21:32:14.246Z,99475.50
2019-05-15T21:34:45.626Z,99470.07
2019-05-15T21:37:18.597Z,99475.42
2019-05-15T21:39:49.163Z,99464.19
2019-05-15T21:42:19.931Z,99467.08
2019-05-15T21:44:50.582Z,99464.50
2019-05-15T21:47:21.510Z,99461.13
2019-05-15T21:49:52.157Z,99462.28
2019-05-15T21:52:22.824Z,99455.08
2019-05-15T21:54:53.528Z,99458.86
2019-05-15T21:57:33.130Z,99460.16
2019-05-15T21:59:57.801Z,99456.47
2019-05-15T22:02:29.730Z,99454.27
2019-05-15T22:05:01.069Z,99456.12
2019-05-15T22:07:32.096Z,99455.66
2019-05-15T22:10:02.890Z,99451.28
2019-05-15T22:12:34.820Z,99452.09
2019-05-15T22:15:05.836Z,99448.05
2019-05-15T22:17:38.954Z,99445.35
2019-05-15T22:20:10.264Z,99445.24
2019-05-15T22:22:41.173Z,99444.17
2019-05-15T22:25:12.447Z,99446.97
2019-05-15T22:27:43.244Z,99448.65
2019-05-15T22:30:14.970Z,99438.44
2019-05-15T22:32:46.097Z,99442.49
2019-05-15T22:35:18.859Z,99437.44
2019-05-15T22:37:50.052Z,99437.14
2019-05-15T22:40:22.548Z,99430.02
2019-05-15T22:42:53.300Z,99426.94
2019-05-15T22:45:24.417Z,99426.03
2019-05-15T22:47:55.190Z,99426.54
2019-05-15T22:50:27.873Z,99418.75
2019-05-15T22:52:59.025Z,99413.30
2019-05-15T22:55:29.876Z,99410.44
2019-05-15T22:58:00.774Z,99410.88
2019-05-15T23:00:31.753Z,99397.81
2019-05-15T23:03:02.667Z,99399.05
2019-05-15T23:05:33.445Z,99392.55
2019-05-15T23:08:05.287Z,99393.78
2019-05-15T23:10:37.945Z,99391.71
2019-05-15T23:13:08.868Z,99384.25
2019-05-15T23:15:39.804Z,99388.14
2019-05-15T23:18:10.476Z,99380.37
2019-05-15T23:20:41.343Z,99374.47
2019-05-15T23:23:12.153Z,99373.86
2019-05-15T23:25:42.891Z,99377.30
2019-05-15T23:28:13.725Z,99372.87
2019-05-15T23:30:44.555Z,99365.71
2019-05-15T23:33:15.490Z,99361.97
2019-05-15T23:35:48.595Z,99360.50
2019-05-15T23:38:19.179Z,99355.22
2019-05-15T23:40:49.877Z,99353.34
2019-05-15T23:43:20.865Z,99351.16
2019-05-15T23:45:51.979Z,99346.91
2019-05-15T23:48:22.920Z,99340.22
2019-05-15T23:50:53.800Z,99345.17
2019-05-15T23:53:24.367Z,99334.95
2019-05-15T23:55:55.077Z,99335.05
2019-05-15T23:58:25.841Z,99329.25
